YRDPS LROP-EDDM
Flight info
| Callsign | YRDPS |
|---|---|
| Flight time | 1h 40m |
| Altitude | 34000 |
| Route | SOKRU DCT DEGET/N0441F380 DCT ARSIN DCT SITNI DCT BAGSI DCT MATIG DCT AMADI Q113 NAPSA NAPSA1B |
| Aircraft | A319/M-SDE3FGHIRWY/LB1 |
Departure
| Time | 2026-05-07 18:33 |
|---|---|
| Airport | Bucharest Henri Coandă International Airport (LROP) |
Arrival
| Time | 2026-05-07 20:14 |
|---|---|
| Airport | Munich Airport (EDDM) |
| Time | Latitude | Longitude | Altitude | Speed | Heading |
|---|---|---|---|---|---|
| 2026-05-07 18:11 | 44.56906 | 26.09038 | 319 ft | 0 kts | 174° |
| 2026-05-07 18:28 | 44.56894 | 26.09040 | 319 ft | 4 kts | 175° |
| 2026-05-07 18:28 | 44.56858 | 26.09036 | 319 ft | 7 kts | 214° |
| 2026-05-07 18:28 | 44.56849 | 26.08961 | 318 ft | 10 kts | 264° |
| 2026-05-07 18:28 | 44.56841 | 26.08851 | 318 ft | 13 kts | 264° |
| 2026-05-07 18:29 | 44.56831 | 26.08709 | 318 ft | 17 kts | 264° |
| 2026-05-07 18:29 | 44.56821 | 26.08592 | 318 ft | 10 kts | 263° |
| 2026-05-07 18:29 | 44.56782 | 26.08570 | 318 ft | 7 kts | 180° |
| 2026-05-07 18:29 | 44.56728 | 26.08577 | 318 ft | 9 kts | 175° |
| 2026-05-07 18:30 | 44.56717 | 26.08578 | 320 ft | 0 kts | 174° |
| 2026-05-07 18:31 | 44.56707 | 26.08579 | 320 ft | 5 kts | 174° |
| 2026-05-07 18:31 | 44.56654 | 26.08590 | 323 ft | 9 kts | 162° |
| 2026-05-07 18:31 | 44.56591 | 26.08655 | 323 ft | 15 kts | 133° |
| 2026-05-07 18:32 | 44.56552 | 26.08775 | 319 ft | 10 kts | 97° |
| 2026-05-07 18:32 | 44.56552 | 26.08801 | 319 ft | 0 kts | 86° |
| 2026-05-07 18:32 | 44.56554 | 26.08831 | 318 ft | 14 kts | 85° |
| 2026-05-07 18:33 | 44.56596 | 26.09391 | 314 ft | 98 kts | 84° |
| 2026-05-07 18:33 | 44.56689 | 26.10593 | 583 ft | 136 kts | 83° |
| 2026-05-07 18:33 | 44.56787 | 26.11950 | 1278 ft | 141 kts | 86° |
| 2026-05-07 18:33 | 44.56888 | 26.13308 | 2026 ft | 142 kts | 87° |
| 2026-05-07 18:34 | 44.56992 | 26.14686 | 2734 ft | 142 kts | 86° |
| 2026-05-07 18:34 | 44.57098 | 26.16078 | 3389 ft | 144 kts | 86° |
| 2026-05-07 18:34 | 44.57206 | 26.17552 | 3884 ft | 162 kts | 86° |
| 2026-05-07 18:34 | 44.57330 | 26.19243 | 4363 ft | 186 kts | 85° |
| 2026-05-07 18:35 | 44.57769 | 26.21052 | 4832 ft | 213 kts | 50° |
| 2026-05-07 18:35 | 44.59094 | 26.22129 | 5390 ft | 236 kts | 6° |
| 2026-05-07 18:35 | 44.60747 | 26.21736 | 6045 ft | 256 kts | 329° |
| 2026-05-07 18:35 | 44.62114 | 26.20057 | 6942 ft | 267 kts | 303° |
| 2026-05-07 18:36 | 44.63102 | 26.17813 | 8073 ft | 273 kts | 298° |
| 2026-05-07 18:36 | 44.64068 | 26.15490 | 9257 ft | 278 kts | 297° |
| 2026-05-07 18:36 | 44.65042 | 26.13113 | 10329 ft | 286 kts | 297° |
| 2026-05-07 18:36 | 44.66072 | 26.10587 | 10938 ft | 309 kts | 297° |
| 2026-05-07 18:37 | 44.67164 | 26.07926 | 11798 ft | 319 kts | 297° |
| 2026-05-07 18:37 | 44.68290 | 26.05195 | 12747 ft | 326 kts | 298° |
| 2026-05-07 18:37 | 44.69441 | 26.02411 | 13704 ft | 333 kts | 298° |
| 2026-05-07 18:37 | 44.70599 | 25.99611 | 14561 ft | 338 kts | 298° |
| 2026-05-07 18:38 | 44.71789 | 25.96728 | 15466 ft | 342 kts | 298° |
| 2026-05-07 18:38 | 44.72989 | 25.93810 | 16377 ft | 346 kts | 298° |
| 2026-05-07 18:38 | 44.74195 | 25.90870 | 17288 ft | 349 kts | 298° |
| 2026-05-07 18:38 | 44.75417 | 25.87884 | 18184 ft | 353 kts | 298° |
| 2026-05-07 18:39 | 44.76647 | 25.84874 | 18959 ft | 358 kts | 298° |
| 2026-05-07 18:39 | 44.77897 | 25.81810 | 19712 ft | 362 kts | 298° |
| 2026-05-07 18:39 | 44.79162 | 25.78711 | 20470 ft | 366 kts | 298° |
| 2026-05-07 18:39 | 44.80437 | 25.75584 | 21219 ft | 370 kts | 298° |
| 2026-05-07 18:40 | 44.81728 | 25.72415 | 21959 ft | 375 kts | 298° |
| 2026-05-07 18:40 | 44.83030 | 25.69220 | 22722 ft | 378 kts | 298° |
| 2026-05-07 18:40 | 44.84346 | 25.65986 | 23468 ft | 382 kts | 298° |
| 2026-05-07 18:40 | 44.85674 | 25.62724 | 24097 ft | 386 kts | 298° |
| 2026-05-07 18:41 | 44.87000 | 25.59467 | 24738 ft | 389 kts | 298° |
| 2026-05-07 18:41 | 44.88347 | 25.56147 | 25384 ft | 392 kts | 298° |
| 2026-05-07 18:41 | 44.89709 | 25.52782 | 25892 ft | 396 kts | 298° |
| 2026-05-07 18:41 | 44.91078 | 25.49395 | 26489 ft | 399 kts | 298° |
| 2026-05-07 18:42 | 44.92459 | 25.45977 | 27117 ft | 401 kts | 298° |
| 2026-05-07 18:42 | 44.93846 | 25.42538 | 27724 ft | 404 kts | 297° |
| 2026-05-07 18:42 | 44.95242 | 25.39075 | 28335 ft | 407 kts | 297° |
| 2026-05-07 18:42 | 44.96643 | 25.35587 | 28946 ft | 409 kts | 297° |
| 2026-05-07 18:43 | 44.98049 | 25.32083 | 29551 ft | 412 kts | 297° |
| 2026-05-07 18:43 | 44.99452 | 25.28589 | 30152 ft | 415 kts | 297° |
| 2026-05-07 18:43 | 45.00878 | 25.25027 | 30664 ft | 418 kts | 297° |
| 2026-05-07 18:43 | 45.02310 | 25.21440 | 31217 ft | 419 kts | 297° |
| 2026-05-07 18:44 | 45.03742 | 25.17849 | 31917 ft | 417 kts | 296° |
| 2026-05-07 18:44 | 45.04686 | 25.15483 | 32386 ft | 416 kts | 296° |
| 2026-05-07 18:44 | 45.06102 | 25.11928 | 33113 ft | 414 kts | 296° |
| 2026-05-07 18:44 | 45.07513 | 25.08389 | 33790 ft | 413 kts | 296° |
| 2026-05-07 18:45 | 45.08927 | 25.04841 | 34013 ft | 412 kts | 296° |
| 2026-05-07 18:45 | 45.10321 | 25.01343 | 34057 ft | 401 kts | 296° |
| 2026-05-07 18:45 | 45.11673 | 24.97956 | 34059 ft | 388 kts | 296° |
| 2026-05-07 18:46 | 45.14255 | 24.91449 | 34055 ft | 374 kts | 295° |
| 2026-05-07 18:46 | 45.16764 | 24.85075 | 34065 ft | 372 kts | 295° |
| 2026-05-07 18:47 | 45.19287 | 24.78671 | 34061 ft | 371 kts | 295° |
| 2026-05-07 18:47 | 45.21806 | 24.72275 | 34063 ft | 371 kts | 295° |
| 2026-05-07 18:48 | 45.24317 | 24.65878 | 34070 ft | 371 kts | 295° |
| 2026-05-07 18:48 | 45.26822 | 24.59472 | 34085 ft | 370 kts | 294° |
| 2026-05-07 18:49 | 45.29298 | 24.53126 | 34076 ft | 369 kts | 294° |
| 2026-05-07 18:49 | 45.31789 | 24.46741 | 34070 ft | 369 kts | 294° |
| 2026-05-07 18:50 | 45.34273 | 24.40370 | 34064 ft | 368 kts | 294° |
| 2026-05-07 18:50 | 45.36746 | 24.34002 | 34042 ft | 368 kts | 294° |
| 2026-05-07 18:51 | 45.39218 | 24.27604 | 34061 ft | 369 kts | 294° |
| 2026-05-07 18:51 | 45.41688 | 24.21202 | 34060 ft | 369 kts | 294° |
| 2026-05-07 18:52 | 45.44174 | 24.14768 | 34064 ft | 376 kts | 294° |
| 2026-05-07 18:52 | 45.46740 | 24.08077 | 34070 ft | 393 kts | 294° |
| 2026-05-07 18:53 | 45.49401 | 24.01107 | 34078 ft | 413 kts | 294° |
| 2026-05-07 18:53 | 45.52208 | 23.93751 | 34073 ft | 432 kts | 294° |
| 2026-05-07 18:54 | 45.55116 | 23.86145 | 34077 ft | 439 kts | 294° |
| 2026-05-07 18:54 | 45.58038 | 23.78479 | 34079 ft | 440 kts | 294° |
| 2026-05-07 18:55 | 45.60959 | 23.70792 | 34069 ft | 440 kts | 294° |
| 2026-05-07 18:55 | 45.63872 | 23.63108 | 34060 ft | 440 kts | 294° |
| 2026-05-07 18:56 | 45.66780 | 23.55418 | 34064 ft | 440 kts | 294° |
| 2026-05-07 18:56 | 45.69650 | 23.47765 | 34061 ft | 440 kts | 293° |
| 2026-05-07 18:57 | 45.72537 | 23.40056 | 34059 ft | 439 kts | 293° |
| 2026-05-07 18:57 | 45.75433 | 23.32335 | 34050 ft | 440 kts | 294° |
| 2026-05-07 18:58 | 45.78326 | 23.24589 | 34037 ft | 442 kts | 293° |
| 2026-05-07 18:58 | 45.81215 | 23.16807 | 34033 ft | 443 kts | 293° |
| 2026-05-07 18:59 | 45.84109 | 23.09003 | 34033 ft | 443 kts | 293° |
| 2026-05-07 18:59 | 45.87001 | 23.01180 | 34045 ft | 444 kts | 293° |
| 2026-05-07 19:00 | 45.89877 | 22.93373 | 34035 ft | 444 kts | 293° |
| 2026-05-07 19:00 | 45.92763 | 22.85517 | 34034 ft | 445 kts | 293° |
| 2026-05-07 19:01 | 45.95650 | 22.77647 | 34033 ft | 445 kts | 293° |
| 2026-05-07 19:01 | 45.98532 | 22.69764 | 34046 ft | 445 kts | 294° |
| 2026-05-07 19:02 | 46.01410 | 22.61869 | 34042 ft | 445 kts | 294° |
| 2026-05-07 19:02 | 46.04285 | 22.53973 | 34043 ft | 445 kts | 294° |
| 2026-05-07 19:03 | 46.07148 | 22.46062 | 34038 ft | 445 kts | 294° |
| 2026-05-07 19:03 | 46.10001 | 22.38148 | 34047 ft | 445 kts | 294° |
| 2026-05-07 19:04 | 46.12841 | 22.30279 | 34043 ft | 445 kts | 294° |
| 2026-05-07 19:04 | 46.15693 | 22.22354 | 34040 ft | 445 kts | 294° |
| 2026-05-07 19:05 | 46.18529 | 22.14409 | 34031 ft | 445 kts | 294° |
| 2026-05-07 19:05 | 46.21369 | 22.06433 | 34034 ft | 445 kts | 294° |
| 2026-05-07 19:06 | 46.24206 | 21.98466 | 34035 ft | 446 kts | 293° |
| 2026-05-07 19:06 | 46.28436 | 21.86548 | 34030 ft | 446 kts | 293° |
| 2026-05-07 19:07 | 46.31259 | 21.78554 | 34027 ft | 446 kts | 293° |
| 2026-05-07 19:07 | 46.34072 | 21.70560 | 34056 ft | 446 kts | 292° |
| 2026-05-07 19:08 | 46.36511 | 21.62346 | 34039 ft | 444 kts | 288° |
| 2026-05-07 19:08 | 46.38774 | 21.54024 | 34033 ft | 443 kts | 287° |
| 2026-05-07 19:09 | 46.41005 | 21.45702 | 34025 ft | 443 kts | 287° |
| 2026-05-07 19:09 | 46.43259 | 21.37358 | 34290 ft | 444 kts | 288° |
| 2026-05-07 19:10 | 46.44387 | 21.33201 | 34709 ft | 441 kts | 288° |
| 2026-05-07 19:10 | 46.45495 | 21.29125 | 35125 ft | 438 kts | 288° |
| 2026-05-07 19:10 | 46.46608 | 21.25029 | 35505 ft | 436 kts | 287° |
| 2026-05-07 19:10 | 46.47711 | 21.20948 | 35862 ft | 435 kts | 287° |
| 2026-05-07 19:11 | 46.48814 | 21.16859 | 36003 ft | 434 kts | 287° |
| 2026-05-07 19:11 | 46.49910 | 21.12777 | 36019 ft | 433 kts | 287° |
| 2026-05-07 19:11 | 46.52089 | 21.04618 | 36014 ft | 433 kts | 287° |
| 2026-05-07 19:12 | 46.54243 | 20.96527 | 36012 ft | 431 kts | 287° |
| 2026-05-07 19:12 | 46.56406 | 20.88404 | 36016 ft | 431 kts | 287° |
| 2026-05-07 19:13 | 46.58564 | 20.80282 | 36019 ft | 430 kts | 287° |
| 2026-05-07 19:13 | 46.60714 | 20.72155 | 36021 ft | 431 kts | 287° |
| 2026-05-07 19:14 | 46.62857 | 20.64019 | 36051 ft | 430 kts | 287° |
| 2026-05-07 19:14 | 46.64995 | 20.55873 | 36046 ft | 430 kts | 287° |
| 2026-05-07 19:15 | 46.67123 | 20.47748 | 36040 ft | 429 kts | 286° |
| 2026-05-07 19:15 | 46.69227 | 20.39687 | 36037 ft | 428 kts | 286° |
| 2026-05-07 19:16 | 46.71333 | 20.31566 | 36036 ft | 428 kts | 286° |
| 2026-05-07 19:16 | 46.73434 | 20.23443 | 36033 ft | 428 kts | 286° |
| 2026-05-07 19:17 | 46.75534 | 20.15319 | 36031 ft | 428 kts | 286° |
| 2026-05-07 19:17 | 46.77620 | 20.07192 | 36033 ft | 428 kts | 286° |
| 2026-05-07 19:18 | 46.79698 | 19.99046 | 36033 ft | 428 kts | 286° |
| 2026-05-07 19:18 | 46.81774 | 19.90909 | 36065 ft | 428 kts | 286° |
| 2026-05-07 19:19 | 46.83836 | 19.82827 | 36058 ft | 427 kts | 285° |
| 2026-05-07 19:19 | 46.85894 | 19.74703 | 36052 ft | 426 kts | 285° |
| 2026-05-07 19:20 | 46.87943 | 19.66573 | 36039 ft | 426 kts | 285° |
| 2026-05-07 19:20 | 46.89994 | 19.58432 | 36038 ft | 426 kts | 285° |
| 2026-05-07 19:21 | 46.92029 | 19.50309 | 36054 ft | 426 kts | 285° |
| 2026-05-07 19:21 | 46.94062 | 19.42173 | 36052 ft | 425 kts | 285° |
| 2026-05-07 19:22 | 46.96087 | 19.34034 | 36044 ft | 425 kts | 285° |
| 2026-05-07 19:22 | 46.98095 | 19.25943 | 36046 ft | 425 kts | 285° |
| 2026-05-07 19:23 | 47.00107 | 19.17802 | 36057 ft | 424 kts | 285° |
| 2026-05-07 19:23 | 47.02105 | 19.09680 | 36035 ft | 423 kts | 284° |
| 2026-05-07 19:24 | 47.04094 | 19.01554 | 36031 ft | 423 kts | 284° |
| 2026-05-07 19:24 | 47.06086 | 18.93406 | 36031 ft | 423 kts | 284° |
| 2026-05-07 19:25 | 47.08058 | 18.85333 | 36037 ft | 423 kts | 284° |
| 2026-05-07 19:25 | 47.10035 | 18.77188 | 36044 ft | 424 kts | 284° |
| 2026-05-07 19:26 | 47.12007 | 18.69002 | 36030 ft | 425 kts | 284° |
| 2026-05-07 19:26 | 47.13984 | 18.60816 | 36026 ft | 425 kts | 284° |
| 2026-05-07 19:27 | 47.15953 | 18.52617 | 36026 ft | 426 kts | 284° |
| 2026-05-07 19:27 | 47.17912 | 18.44408 | 36055 ft | 426 kts | 284° |
| 2026-05-07 19:28 | 47.19872 | 18.36184 | 36046 ft | 426 kts | 284° |
| 2026-05-07 19:28 | 47.21828 | 18.27959 | 36040 ft | 426 kts | 284° |
| 2026-05-07 19:29 | 47.23449 | 18.21113 | 36037 ft | 426 kts | 284° |
| 2026-05-07 19:29 | 47.25399 | 18.12864 | 36035 ft | 426 kts | 284° |
| 2026-05-07 19:30 | 47.27330 | 18.04618 | 36059 ft | 426 kts | 283° |
| 2026-05-07 19:30 | 47.29255 | 17.96367 | 36047 ft | 426 kts | 283° |
| 2026-05-07 19:31 | 47.31178 | 17.88116 | 36035 ft | 425 kts | 283° |
| 2026-05-07 19:31 | 47.33096 | 17.79864 | 36023 ft | 425 kts | 283° |
| 2026-05-07 19:32 | 47.35010 | 17.71620 | 36012 ft | 425 kts | 283° |
| 2026-05-07 19:32 | 47.36913 | 17.63348 | 36023 ft | 426 kts | 283° |
| 2026-05-07 19:33 | 47.38806 | 17.55054 | 36008 ft | 427 kts | 283° |
| 2026-05-07 19:33 | 47.40692 | 17.46800 | 36002 ft | 427 kts | 283° |
| 2026-05-07 19:34 | 47.42589 | 17.38478 | 36001 ft | 427 kts | 283° |
| 2026-05-07 19:34 | 47.44485 | 17.30133 | 36032 ft | 428 kts | 284° |
| 2026-05-07 19:35 | 47.46374 | 17.21783 | 36025 ft | 428 kts | 284° |
| 2026-05-07 19:35 | 47.48251 | 17.13431 | 36032 ft | 428 kts | 284° |
| 2026-05-07 19:36 | 47.50122 | 17.05064 | 36034 ft | 428 kts | 284° |
| 2026-05-07 19:36 | 47.51989 | 16.96709 | 36032 ft | 428 kts | 284° |
| 2026-05-07 19:37 | 47.53859 | 16.88336 | 36057 ft | 428 kts | 284° |
| 2026-05-07 19:37 | 47.55716 | 16.79964 | 36045 ft | 428 kts | 284° |
| 2026-05-07 19:38 | 47.57609 | 16.71590 | 36040 ft | 430 kts | 285° |
| 2026-05-07 19:38 | 47.59767 | 16.63388 | 36037 ft | 431 kts | 288° |
| 2026-05-07 19:39 | 47.62029 | 16.55153 | 36039 ft | 431 kts | 287° |
| 2026-05-07 19:39 | 47.64239 | 16.46884 | 36043 ft | 431 kts | 287° |
| 2026-05-07 19:40 | 47.66386 | 16.38596 | 36043 ft | 430 kts | 287° |
| 2026-05-07 19:40 | 47.68526 | 16.30312 | 36048 ft | 430 kts | 287° |
| 2026-05-07 19:41 | 47.70677 | 16.22020 | 36047 ft | 430 kts | 287° |
| 2026-05-07 19:41 | 47.72829 | 16.13699 | 36068 ft | 430 kts | 287° |
| 2026-05-07 19:42 | 47.74950 | 16.05441 | 36064 ft | 430 kts | 287° |
| 2026-05-07 19:42 | 47.77092 | 15.97074 | 36062 ft | 431 kts | 287° |
| 2026-05-07 19:43 | 47.79205 | 15.88796 | 36051 ft | 431 kts | 287° |
| 2026-05-07 19:43 | 47.81326 | 15.80451 | 36054 ft | 431 kts | 287° |
| 2026-05-07 19:44 | 47.83438 | 15.72113 | 36049 ft | 430 kts | 287° |
| 2026-05-07 19:44 | 47.85548 | 15.63755 | 36050 ft | 431 kts | 287° |
| 2026-05-07 19:45 | 47.87657 | 15.55376 | 36053 ft | 432 kts | 287° |
| 2026-05-07 19:45 | 47.89748 | 15.47037 | 36048 ft | 432 kts | 287° |
| 2026-05-07 19:46 | 47.91844 | 15.38647 | 36062 ft | 432 kts | 287° |
| 2026-05-07 19:46 | 47.93936 | 15.30245 | 36057 ft | 432 kts | 287° |
| 2026-05-07 19:47 | 47.96027 | 15.21841 | 36051 ft | 432 kts | 287° |
| 2026-05-07 19:47 | 47.98105 | 15.13415 | 36052 ft | 432 kts | 287° |
| 2026-05-07 19:48 | 48.00172 | 15.04968 | 36050 ft | 432 kts | 287° |
| 2026-05-07 19:48 | 48.02236 | 14.96535 | 36066 ft | 432 kts | 287° |
| 2026-05-07 19:49 | 48.04299 | 14.88084 | 36062 ft | 432 kts | 287° |
| 2026-05-07 19:49 | 48.05462 | 14.79428 | 36056 ft | 426 kts | 269° |
| 2026-05-07 19:50 | 48.05520 | 14.70582 | 36052 ft | 426 kts | 269° |
| 2026-05-07 19:50 | 48.05591 | 14.61708 | 35804 ft | 427 kts | 269° |
| 2026-05-07 19:51 | 48.05627 | 14.57253 | 35404 ft | 430 kts | 269° |
| 2026-05-07 19:51 | 48.05662 | 14.52799 | 34969 ft | 428 kts | 269° |
| 2026-05-07 19:51 | 48.05692 | 14.48364 | 34519 ft | 425 kts | 269° |
| 2026-05-07 19:51 | 48.05717 | 14.43967 | 34078 ft | 422 kts | 269° |
| 2026-05-07 19:52 | 48.05737 | 14.39597 | 33573 ft | 418 kts | 269° |
| 2026-05-07 19:52 | 48.05753 | 14.35280 | 33132 ft | 413 kts | 269° |
| 2026-05-07 19:52 | 48.05769 | 14.31000 | 32667 ft | 409 kts | 269° |
| 2026-05-07 19:52 | 48.05788 | 14.26748 | 32190 ft | 406 kts | 269° |
| 2026-05-07 19:53 | 48.05807 | 14.22544 | 31723 ft | 402 kts | 269° |
| 2026-05-07 19:53 | 48.05823 | 14.18436 | 31270 ft | 399 kts | 269° |
| 2026-05-07 19:53 | 48.05839 | 14.14300 | 30826 ft | 401 kts | 270° |
| 2026-05-07 19:53 | 48.05852 | 14.10087 | 30370 ft | 407 kts | 270° |
| 2026-05-07 19:54 | 48.05866 | 14.05856 | 29884 ft | 412 kts | 270° |
| 2026-05-07 19:54 | 48.05876 | 14.01513 | 29422 ft | 422 kts | 270° |
| 2026-05-07 19:54 | 48.05882 | 13.97095 | 28964 ft | 423 kts | 270° |
| 2026-05-07 19:54 | 48.05883 | 13.92703 | 28523 ft | 422 kts | 270° |
| 2026-05-07 19:55 | 48.05881 | 13.88333 | 28083 ft | 419 kts | 270° |
| 2026-05-07 19:55 | 48.05879 | 13.83986 | 27639 ft | 417 kts | 270° |
| 2026-05-07 19:55 | 48.05880 | 13.79668 | 27193 ft | 414 kts | 270° |
| 2026-05-07 19:55 | 48.05882 | 13.75375 | 26745 ft | 412 kts | 270° |
| 2026-05-07 19:56 | 48.05884 | 13.71099 | 26294 ft | 410 kts | 270° |
| 2026-05-07 19:56 | 48.05884 | 13.66845 | 25841 ft | 408 kts | 270° |
| 2026-05-07 19:56 | 48.05880 | 13.62614 | 25372 ft | 405 kts | 270° |
| 2026-05-07 19:56 | 48.05869 | 13.58411 | 24909 ft | 403 kts | 270° |
| 2026-05-07 19:57 | 48.05860 | 13.54297 | 24441 ft | 400 kts | 271° |
| 2026-05-07 19:57 | 48.05948 | 13.50106 | 23956 ft | 397 kts | 274° |
| 2026-05-07 19:57 | 48.06145 | 13.46001 | 23448 ft | 394 kts | 275° |
| 2026-05-07 19:57 | 48.06396 | 13.41996 | 22958 ft | 392 kts | 276° |
| 2026-05-07 19:58 | 48.06665 | 13.37959 | 22491 ft | 389 kts | 276° |
| 2026-05-07 19:58 | 48.06925 | 13.33951 | 22012 ft | 386 kts | 276° |
| 2026-05-07 19:58 | 48.07167 | 13.29955 | 21542 ft | 384 kts | 275° |
| 2026-05-07 19:58 | 48.07388 | 13.26000 | 21073 ft | 379 kts | 275° |
| 2026-05-07 19:59 | 48.07592 | 13.22115 | 20594 ft | 369 kts | 275° |
| 2026-05-07 19:59 | 48.07784 | 13.18354 | 20142 ft | 355 kts | 275° |
| 2026-05-07 19:59 | 48.07964 | 13.14701 | 19720 ft | 349 kts | 275° |
| 2026-05-07 19:59 | 48.08141 | 13.11143 | 19319 ft | 346 kts | 275° |
| 2026-05-07 20:00 | 48.08320 | 13.07562 | 18895 ft | 344 kts | 275° |
| 2026-05-07 20:00 | 48.08500 | 13.04010 | 18480 ft | 341 kts | 275° |
| 2026-05-07 20:00 | 48.08678 | 13.00483 | 18029 ft | 339 kts | 275° |
| 2026-05-07 20:00 | 48.08850 | 12.96976 | 17604 ft | 337 kts | 275° |
| 2026-05-07 20:01 | 48.09023 | 12.93490 | 17187 ft | 335 kts | 275° |
| 2026-05-07 20:01 | 48.09213 | 12.90023 | 16775 ft | 333 kts | 276° |
| 2026-05-07 20:01 | 48.09491 | 12.86595 | 16372 ft | 331 kts | 277° |
| 2026-05-07 20:01 | 48.09826 | 12.83189 | 15961 ft | 329 kts | 278° |
| 2026-05-07 20:02 | 48.10177 | 12.79816 | 15562 ft | 328 kts | 278° |
| 2026-05-07 20:02 | 48.10525 | 12.76454 | 15159 ft | 326 kts | 278° |
| 2026-05-07 20:02 | 48.10858 | 12.73111 | 14759 ft | 324 kts | 277° |
| 2026-05-07 20:02 | 48.11179 | 12.69780 | 14361 ft | 322 kts | 277° |
| 2026-05-07 20:03 | 48.11490 | 12.66465 | 13968 ft | 321 kts | 277° |
| 2026-05-07 20:03 | 48.11795 | 12.63164 | 13522 ft | 317 kts | 277° |
| 2026-05-07 20:03 | 48.12086 | 12.59997 | 13068 ft | 305 kts | 277° |
| 2026-05-07 20:03 | 48.12372 | 12.56897 | 12620 ft | 295 kts | 277° |
| 2026-05-07 20:04 | 48.12649 | 12.53901 | 12179 ft | 286 kts | 277° |
| 2026-05-07 20:04 | 48.12918 | 12.50993 | 11745 ft | 279 kts | 277° |
| 2026-05-07 20:04 | 48.13183 | 12.48139 | 11316 ft | 275 kts | 277° |
| 2026-05-07 20:04 | 48.13446 | 12.45314 | 10893 ft | 273 kts | 277° |
| 2026-05-07 20:05 | 48.13735 | 12.42504 | 10611 ft | 272 kts | 281° |
| 2026-05-07 20:05 | 48.14482 | 12.39883 | 9946 ft | 280 kts | 305° |
| 2026-05-07 20:05 | 48.15836 | 12.37825 | 9509 ft | 275 kts | 314° |
| 2026-05-07 20:05 | 48.17192 | 12.35884 | 8995 ft | 272 kts | 313° |
| 2026-05-07 20:06 | 48.18544 | 12.33924 | 8503 ft | 268 kts | 313° |
| 2026-05-07 20:06 | 48.19840 | 12.32035 | 8362 ft | 252 kts | 313° |
| 2026-05-07 20:06 | 48.21059 | 12.30253 | 8178 ft | 240 kts | 313° |
| 2026-05-07 20:06 | 48.22270 | 12.28475 | 7586 ft | 252 kts | 313° |
| 2026-05-07 20:07 | 48.23560 | 12.26580 | 6988 ft | 264 kts | 314° |
| 2026-05-07 20:07 | 48.24883 | 12.24639 | 6555 ft | 268 kts | 314° |
| 2026-05-07 20:07 | 48.26217 | 12.22682 | 6186 ft | 268 kts | 314° |
| 2026-05-07 20:07 | 48.27523 | 12.20771 | 6009 ft | 255 kts | 314° |
| 2026-05-07 20:08 | 48.28787 | 12.18923 | 5802 ft | 251 kts | 314° |
| 2026-05-07 20:08 | 48.30022 | 12.17118 | 5681 ft | 245 kts | 314° |
| 2026-05-07 20:08 | 48.31236 | 12.15337 | 5567 ft | 244 kts | 314° |
| 2026-05-07 20:08 | 48.32453 | 12.13551 | 5432 ft | 244 kts | 314° |
| 2026-05-07 20:09 | 48.33655 | 12.11788 | 5291 ft | 243 kts | 314° |
| 2026-05-07 20:09 | 48.34867 | 12.10008 | 5177 ft | 243 kts | 314° |
| 2026-05-07 20:09 | 48.35865 | 12.07986 | 5033 ft | 241 kts | 294° |
| 2026-05-07 20:10 | 48.36192 | 12.03198 | 4497 ft | 226 kts | 263° |
| 2026-05-07 20:10 | 48.36019 | 12.00909 | 4207 ft | 216 kts | 263° |
| 2026-05-07 20:10 | 48.35855 | 11.98707 | 3934 ft | 206 kts | 263° |
| 2026-05-07 20:10 | 48.35701 | 11.96653 | 3633 ft | 193 kts | 264° |
| 2026-05-07 20:11 | 48.35556 | 11.94721 | 3409 ft | 178 kts | 264° |
| 2026-05-07 20:11 | 48.35420 | 11.92912 | 3172 ft | 171 kts | 264° |
| 2026-05-07 20:11 | 48.35287 | 11.91135 | 2952 ft | 165 kts | 264° |
| 2026-05-07 20:11 | 48.35167 | 11.89545 | 2725 ft | 147 kts | 264° |
| 2026-05-07 20:12 | 48.35054 | 11.88049 | 2521 ft | 141 kts | 265° |
| 2026-05-07 20:12 | 48.34980 | 11.87067 | 2396 ft | 139 kts | 264° |
| 2026-05-07 20:12 | 48.34871 | 11.85630 | 2208 ft | 137 kts | 264° |
| 2026-05-07 20:12 | 48.34763 | 11.84205 | 2018 ft | 137 kts | 264° |
| 2026-05-07 20:13 | 48.34654 | 11.82792 | 1820 ft | 136 kts | 263° |
| 2026-05-07 20:13 | 48.34546 | 11.81382 | 1637 ft | 135 kts | 264° |
| 2026-05-07 20:13 | 48.34439 | 11.79983 | 1481 ft | 131 kts | 264° |
| 2026-05-07 20:13 | 48.34349 | 11.78796 | 1461 ft | 95 kts | 263° |
| 2026-05-07 20:14 | 48.34301 | 11.78107 | 1473 ft | 27 kts | 282° |
| 2026-05-07 20:14 | 48.34354 | 11.77868 | 1464 ft | 25 kts | 293° |
| 2026-05-07 20:14 | 48.34412 | 11.77669 | 1460 ft | 13 kts | 294° |
| 2026-05-07 20:14 | 48.34451 | 11.77537 | 1462 ft | 15 kts | 294° |
| 2026-05-07 20:15 | 48.34525 | 11.77433 | 1466 ft | 16 kts | 355° |
| 2026-05-07 20:15 | 48.34615 | 11.77435 | 1466 ft | 11 kts | 22° |
| 2026-05-07 20:15 | 48.34632 | 11.77546 | 1466 ft | 12 kts | 85° |
| 2026-05-07 20:15 | 48.34644 | 11.77682 | 1467 ft | 13 kts | 82° |
| 2026-05-07 20:16 | 48.34656 | 11.77821 | 1466 ft | 13 kts | 83° |
| 2026-05-07 20:16 | 48.34702 | 11.77891 | 1466 ft | 11 kts | 2° |
| 2026-05-07 20:16 | 48.34783 | 11.77876 | 1466 ft | 10 kts | 354° |
| 2026-05-07 20:16 | 48.34833 | 11.77868 | 1466 ft | 8 kts | 353° |
| 2026-05-07 20:17 | 48.34886 | 11.77859 | 1466 ft | 2 kts | 354° |
| 2026-05-07 20:17 | 48.34890 | 11.77859 | 1466 ft | 1 kts | 354° |
| 2026-05-07 20:17 | 48.34891 | 11.77858 | 1466 ft | 0 kts | 355° |
| 2026-05-07 20:17 | 48.34900 | 11.77857 | 1466 ft | 2 kts | 355° |
| 2026-05-07 20:18 | 48.34904 | 11.77857 | 1466 ft | 0 kts | 355° |
| 2026-05-07 20:18 | 48.34916 | 11.77855 | 1460 ft | 3 kts | 355° |
| 2026-05-07 20:18 | 48.34942 | 11.77851 | 1466 ft | 5 kts | 354° |
| 2026-05-07 20:18 | 48.34984 | 11.77845 | 1462 ft | 7 kts | 354° |
| 2026-05-07 20:19 | 48.35038 | 11.77836 | 1463 ft | 8 kts | 352° |
| 2026-05-07 20:19 | 48.35069 | 11.77866 | 1460 ft | 6 kts | 64° |
| 2026-05-07 20:19 | 48.35072 | 11.77931 | 1462 ft | 6 kts | 83° |
| 2026-05-07 20:19 | 48.35074 | 11.77961 | 1466 ft | 0 kts | 83° |